Decoded Metar for KDYA ( in ) (IATA:) | Meteo·Mobile Aviation Weather
aviador You're here:

KDYA Decoded Metar

in
Report Time2019-11-14 12:15:00
UTC Time2019-11-14 12:24:27
Flight Rules vfr VFR
WindCalm
Visibility9999 m
Phenomena:N/A
Clouds:Overcast 110 Hf
Expected CloudBase > 1,200 ft AGL from Temp-Dew spread
Ceiling11,000 ft
Temp04°C
Dew Point01°C (81% RH)
AAT2.2°C
QNH1025 hPa
Raw Report
METAR KDYA 141215Z AUTO 00000KT 7SM OVC110 04/01 A3026 RMK AO2 T00350007=

Extra information for KDYA:More info

Social comments